createdAt,value
2016-11-09T00:00:05.125Z,97.47
2016-11-09T00:01:18.411Z,97.67
2016-11-09T00:02:30.933Z,98.15
2016-11-09T00:03:43.949Z,98.34
2016-11-09T00:04:57.224Z,98.73
2016-11-09T00:06:10.889Z,97.96
2016-11-09T00:07:23.408Z,98.44
2016-11-09T00:08:36.949Z,98.63
2016-11-09T00:09:50.575Z,98.15
2016-11-09T00:11:04.194Z,98.44
2016-11-09T00:12:16.947Z,97.86
2016-11-09T00:13:30.565Z,98.25
2016-11-09T00:14:43.637Z,98.15
2016-11-09T00:15:56.692Z,98.05
2016-11-09T00:17:10.306Z,98.05
2016-11-09T00:18:23.913Z,97.86
2016-11-09T00:19:37.004Z,97.86
2016-11-09T00:20:50.675Z,98.15
2016-11-09T00:22:03.696Z,98.34
2016-11-09T00:23:16.202Z,98.44
2016-11-09T00:24:29.867Z,98.73
2016-11-09T00:25:43.424Z,99.07
2016-11-09T00:26:56.555Z,99.21
2016-11-09T00:28:10.052Z,98.34
2016-11-09T00:29:23.627Z,98.63
2016-11-09T00:30:37.181Z,99.6
2016-11-09T00:31:50.175Z,99.65
2016-11-09T00:33:03.788Z,99.99
2016-11-09T00:34:17.871Z,99.93
2016-11-09T00:35:30.409Z,99.99
2016-11-09T00:36:43.931Z,99.69
2016-11-09T00:37:57.508Z,99.5
2016-11-09T00:39:11.118Z,99.11
2016-11-09T00:40:24.155Z,98.54
2016-11-09T00:41:37.122Z,98.73
2016-11-09T00:42:50.725Z,99.31
2016-11-09T00:44:03.979Z,98.73
2016-11-09T00:45:17.677Z,98.63
2016-11-09T00:46:30.705Z,99.5
2016-11-09T00:47:44.236Z,98.92
2016-11-09T00:48:57.326Z,99.69
2016-11-09T00:50:10.886Z,99.02
2016-11-09T00:51:23.945Z,99.21
2016-11-09T00:52:37.544Z,99.6
2016-11-09T00:53:51.192Z,99.6
2016-11-09T00:55:04.734Z,99.69
2016-11-09T00:56:18.302Z,98.73
2016-11-09T00:57:31.847Z,98.44
2016-11-09T00:59:15.501Z,98.73
2016-11-09T01:00:28.834Z,99.11
2016-11-09T01:01:41.338Z,99.16
2016-11-09T01:02:55.108Z,99.21
2016-11-09T01:04:08.666Z,99.5
2016-11-09T01:05:22.318Z,99.02
2016-11-09T01:06:35.929Z,99.6
2016-11-09T01:07:49.504Z,99.35
2016-11-09T01:09:03.072Z,99.65
2016-11-09T01:10:16.474Z,99.35
2016-11-09T01:11:30.090Z,99.99
2016-11-09T01:12:43.710Z,99.84
2016-11-09T01:14:28.272Z,99.99
2016-11-09T01:15:40.500Z,99.99
2016-11-09T01:16:53.508Z,99.99
2016-11-09T01:18:06.467Z,99.99
2016-11-09T01:19:20.167Z,99.99
2016-11-09T01:20:33.826Z,99.99
2016-11-09T01:21:47.348Z,99.99
2016-11-09T01:23:00.942Z,99.99
2016-11-09T01:24:14.511Z,99.99
2016-11-09T01:25:28.101Z,99.99
2016-11-09T01:26:40.596Z,99.99
2016-11-09T01:27:54.215Z,99.99
2016-11-09T01:29:07.208Z,99.99
2016-11-09T01:30:20.770Z,99.99
2016-11-09T01:31:34.333Z,99.99
2016-11-09T01:32:48.002Z,99.99
2016-11-09T01:34:01.086Z,99.99
2016-11-09T01:35:14.726Z,99.99
2016-11-09T01:36:27.807Z,99.99
2016-11-09T01:37:40.788Z,99.99
2016-11-09T01:38:54.389Z,99.99
2016-11-09T01:40:07.676Z,99.99
2016-11-09T01:41:21.235Z,99.99
2016-11-09T01:42:34.765Z,99.99
2016-11-09T01:43:48.266Z,99.99
2016-11-09T01:45:01.851Z,99.99
2016-11-09T01:46:14.920Z,99.99
2016-11-09T01:47:27.914Z,99.99
2016-11-09T01:48:41.488Z,99.99
2016-11-09T01:49:55.440Z,99.99
2016-11-09T01:51:08.963Z,99.99
2016-11-09T01:52:22.324Z,99.99
2016-11-09T01:53:34.886Z,99.99
2016-11-09T01:54:48.335Z,99.99
2016-11-09T01:56:01.884Z,99.99
2016-11-09T01:57:14.891Z,99.99
2016-11-09T01:58:28.661Z,99.99
2016-11-09T01:59:41.736Z,99.99
2016-11-09T02:00:54.890Z,99.99
2016-11-09T02:02:08.469Z,99.99
2016-11-09T02:03:21.486Z,99.99
2016-11-09T02:04:34.960Z,99.99
2016-11-09T02:05:47.994Z,99.99
2016-11-09T02:07:01.034Z,99.99
2016-11-09T02:08:14.683Z,99.99
2016-11-09T02:09:28.036Z,99.99
2016-11-09T02:10:41.676Z,99.99
2016-11-09T02:11:55.518Z,99.99
2016-11-09T02:13:08.501Z,99.99
2016-11-09T02:14:22.536Z,99.99
2016-11-09T02:15:35.890Z,99.99
2016-11-09T02:16:49.530Z,99.99
2016-11-09T02:18:03.099Z,99.99
2016-11-09T02:19:16.404Z,99.99
2016-11-09T02:20:29.741Z,99.99
2016-11-09T02:21:42.807Z,99.99
2016-11-09T02:22:55.864Z,99.99
2016-11-09T02:24:08.928Z,99.99
2016-11-09T02:25:22.561Z,99.99
2016-11-09T02:26:36.122Z,99.99
2016-11-09T02:27:49.413Z,99.99
2016-11-09T02:29:03.066Z,99.99
2016-11-09T02:30:16.041Z,99.99
2016-11-09T02:31:29.411Z,99.99
2016-11-09T02:32:42.519Z,99.99
2016-11-09T02:33:55.624Z,99.99
2016-11-09T02:35:39.937Z,99.99
2016-11-09T02:36:53.657Z,99.99
2016-11-09T02:38:06.726Z,99.99
2016-11-09T02:39:20.367Z,99.99
2016-11-09T02:40:33.942Z,99.99
2016-11-09T02:41:47.534Z,99.99
2016-11-09T02:43:01.085Z,99.99
2016-11-09T02:44:14.677Z,99.99
2016-11-09T02:45:27.750Z,99.99
2016-11-09T02:46:41.344Z,99.99
2016-11-09T02:47:54.410Z,99.99
2016-11-09T02:49:08.104Z,99.99
2016-11-09T02:50:21.712Z,99.99
2016-11-09T02:51:34.794Z,99.99
2016-11-09T02:52:48.360Z,99.99
2016-11-09T02:54:01.923Z,99.99
2016-11-09T02:55:15.719Z,99.99
2016-11-09T02:56:29.055Z,99.99
2016-11-09T02:57:42.100Z,99.99
2016-11-09T02:58:55.741Z,99.99
2016-11-09T03:00:09.376Z,99.99
2016-11-09T03:01:22.965Z,99.99
2016-11-09T03:02:36.577Z,99.99
2016-11-09T03:03:50.090Z,99.99
2016-11-09T03:05:03.749Z,99.99
2016-11-09T03:06:16.745Z,99.99
2016-11-09T03:07:30.287Z,99.99
2016-11-09T03:08:43.880Z,99.99
2016-11-09T03:09:57.402Z,99.99
2016-11-09T03:11:10.969Z,99.99
2016-11-09T03:12:24.111Z,99.99
2016-11-09T03:13:37.687Z,99.99
2016-11-09T03:14:51.025Z,99.99
2016-11-09T03:16:04.567Z,99.99
2016-11-09T03:17:18.190Z,99.99
2016-11-09T03:18:31.203Z,99.99
2016-11-09T03:19:44.220Z,99.99
2016-11-09T03:20:57.761Z,99.99
2016-11-09T03:22:11.340Z,99.99
2016-11-09T03:23:24.303Z,99.99
2016-11-09T03:24:37.912Z,99.99
2016-11-09T03:25:51.464Z,99.99
2016-11-09T03:27:04.972Z,99.99
2016-11-09T03:28:18.524Z,99.99
2016-11-09T03:29:32.226Z,99.99
2016-11-09T03:30:45.266Z,99.99
2016-11-09T03:31:58.782Z,99.99
2016-11-09T03:33:12.427Z,99.99
2016-11-09T03:34:25.946Z,99.99
2016-11-09T03:35:39.035Z,99.99
2016-11-09T03:36:52.838Z,99.99
2016-11-09T03:38:06.469Z,99.99
2016-11-09T03:39:19.686Z,99.99
2016-11-09T03:40:33.275Z,99.99
2016-11-09T03:41:46.944Z,99.99
2016-11-09T03:43:00.533Z,99.99
2016-11-09T03:44:13.059Z,99.99
2016-11-09T03:45:27.088Z,99.99
2016-11-09T03:46:40.239Z,99.99
2016-11-09T03:47:53.289Z,99.99
2016-11-09T03:49:06.329Z,99.99
2016-11-09T03:50:19.873Z,99.99
2016-11-09T03:51:33.135Z,99.99
2016-11-09T03:52:46.630Z,99.99
2016-11-09T03:53:59.439Z,99.99
2016-11-09T03:55:12.023Z,99.99
2016-11-09T03:56:25.436Z,99.99
2016-11-09T03:57:39.019Z,99.99
2016-11-09T03:58:52.922Z,99.99
2016-11-09T04:00:06.272Z,99.99
2016-11-09T04:01:19.289Z,99.99
2016-11-09T04:02:32.855Z,99.99
2016-11-09T04:03:46.407Z,99.99
2016-11-09T04:04:58.981Z,99.99
2016-11-09T04:06:12.555Z,99.99
2016-11-09T04:07:25.283Z,99.99
2016-11-09T04:08:38.956Z,99.99
2016-11-09T04:09:52.259Z,99.99
2016-11-09T04:11:05.832Z,99.99
2016-11-09T04:12:18.852Z,99.99
2016-11-09T04:13:32.438Z,99.99
2016-11-09T04:14:46.030Z,99.99
2016-11-09T04:15:59.581Z,99.99
2016-11-09T04:17:12.861Z,99.99
2016-11-09T04:18:26.467Z,99.99
2016-11-09T04:19:40.063Z,99.99
2016-11-09T04:20:53.655Z,99.99
2016-11-09T04:22:06.674Z,99.99
2016-11-09T04:23:19.996Z,99.99
2016-11-09T04:24:33.679Z,99.99
2016-11-09T04:25:47.287Z,99.99
2016-11-09T04:27:00.867Z,99.99
2016-11-09T04:28:14.542Z,99.99
2016-11-09T04:29:28.113Z,99.99
2016-11-09T04:30:41.109Z,99.99
2016-11-09T04:31:54.690Z,99.99
2016-11-09T04:33:07.440Z,99.99
2016-11-09T04:34:21.071Z,99.99
2016-11-09T04:35:34.641Z,99.99
2016-11-09T04:36:48.181Z,99.99
2016-11-09T04:39:46.616Z,99.99
2016-11-09T04:41:00.334Z,99.99
2016-11-09T04:42:12.822Z,99.99
2016-11-09T04:43:26.389Z,99.99
2016-11-09T04:44:40.040Z,99.99
2016-11-09T04:45:53.630Z,99.99
2016-11-09T04:47:07.153Z,99.99
2016-11-09T04:48:20.200Z,99.99
2016-11-09T04:49:33.533Z,99.99
2016-11-09T04:50:46.564Z,99.99
2016-11-09T04:51:59.737Z,99.99
2016-11-09T04:53:13.273Z,99.99
2016-11-09T04:54:27.138Z,99.99
2016-11-09T04:55:40.776Z,99.99
2016-11-09T04:56:54.142Z,99.99
2016-11-09T04:58:07.694Z,99.99
2016-11-09T04:59:20.235Z,99.99
2016-11-09T05:00:33.741Z,99.99
2016-11-09T05:01:47.273Z,99.99
2016-11-09T05:03:00.830Z,99.99
2016-11-09T05:04:14.424Z,99.99
2016-11-09T05:05:27.498Z,99.99
2016-11-09T05:06:41.061Z,99.99
2016-11-09T05:07:53.714Z,99.99
2016-11-09T05:09:06.851Z,99.99
2016-11-09T05:10:19.872Z,99.99
2016-11-09T05:11:33.456Z,99.99
2016-11-09T05:12:46.547Z,99.99
2016-11-09T05:14:00.166Z,99.99
2016-11-09T05:15:13.750Z,99.99
2016-11-09T05:16:57.915Z,99.99
2016-11-09T05:18:11.533Z,99.99
2016-11-09T05:19:24.560Z,99.99
2016-11-09T05:20:38.140Z,99.99
2016-11-09T05:21:51.769Z,99.99
2016-11-09T05:23:05.113Z,99.99
2016-11-09T05:24:18.174Z,99.99
2016-11-09T05:25:30.703Z,99.99
2016-11-09T05:26:44.324Z,99.99
2016-11-09T05:27:57.847Z,99.99
2016-11-09T05:29:11.447Z,99.99
2016-11-09T05:30:25.021Z,99.99
2016-11-09T05:31:38.592Z,99.99
2016-11-09T05:32:51.596Z,99.99
2016-11-09T05:34:05.265Z,99.99
2016-11-09T05:35:18.245Z,99.99
2016-11-09T05:36:31.849Z,99.99
2016-11-09T05:37:45.437Z,99.99
2016-11-09T05:38:58.994Z,99.99
2016-11-09T05:40:12.595Z,99.99
2016-11-09T05:41:26.120Z,99.99
2016-11-09T05:42:39.630Z,99.99
2016-11-09T05:43:53.000Z,99.99
2016-11-09T05:45:05.557Z,99.99
2016-11-09T05:46:18.626Z,99.99
2016-11-09T05:47:31.680Z,99.99
2016-11-09T05:48:44.733Z,99.99
2016-11-09T05:49:57.216Z,99.99
2016-11-09T05:51:10.295Z,99.99
2016-11-09T05:52:24.222Z,99.99
2016-11-09T05:53:37.816Z,99.99
2016-11-09T05:54:51.383Z,99.99
2016-11-09T05:56:04.949Z,99.99
2016-11-09T05:57:17.931Z,99.99
2016-11-09T05:58:30.992Z,99.99
2016-11-09T05:59:44.345Z,99.99
2016-11-09T06:00:57.936Z,99.99
2016-11-09T06:02:11.559Z,99.99
2016-11-09T06:03:25.182Z,99.99
2016-11-09T06:04:38.743Z,99.99
2016-11-09T06:05:52.277Z,99.99
2016-11-09T06:07:05.326Z,99.99
2016-11-09T06:08:18.677Z,99.99
2016-11-09T06:09:31.721Z,99.99
2016-11-09T06:10:44.771Z,99.99
2016-11-09T06:11:58.349Z,99.99
2016-11-09T06:13:11.120Z,99.99
2016-11-09T06:14:23.125Z,99.99
2016-11-09T06:15:36.240Z,99.99
2016-11-09T06:16:49.897Z,99.99
2016-11-09T06:18:03.091Z,99.99
2016-11-09T06:19:16.182Z,99.99
2016-11-09T06:20:28.582Z,99.99
2016-11-09T06:21:41.676Z,99.99
2016-11-09T06:22:55.327Z,99.99
2016-11-09T06:24:08.872Z,99.99
2016-11-09T06:25:22.525Z,99.99
2016-11-09T06:26:34.496Z,99.99
2016-11-09T06:27:48.090Z,99.99
2016-11-09T06:29:01.728Z,99.99
2016-11-09T06:30:14.745Z,99.99
2016-11-09T06:31:28.365Z,99.99
2016-11-09T06:34:25.694Z,99.99
2016-11-09T06:35:39.344Z,99.99
2016-11-09T06:36:53.040Z,99.99
2016-11-09T06:38:06.112Z,99.99
2016-11-09T06:39:19.183Z,99.99
2016-11-09T06:40:31.729Z,99.99
2016-11-09T06:41:45.317Z,99.99
2016-11-09T06:42:58.303Z,99.99
2016-11-09T06:44:10.815Z,99.99
2016-11-09T06:45:23.548Z,99.99
2016-11-09T06:46:37.091Z,99.99
2016-11-09T06:47:50.688Z,99.99
2016-11-09T06:49:04.239Z,99.99
2016-11-09T06:50:16.764Z,99.99
2016-11-09T06:51:29.881Z,99.99
2016-11-09T06:52:43.421Z,99.99
2016-11-09T06:53:56.803Z,99.99
2016-11-09T06:55:10.433Z,99.99
2016-11-09T06:56:23.943Z,99.99
2016-11-09T06:57:37.587Z,99.99
2016-11-09T06:58:51.228Z,99.99
2016-11-09T07:00:04.532Z,99.99
2016-11-09T07:01:18.120Z,99.99
2016-11-09T07:02:31.126Z,99.99
2016-11-09T07:03:44.721Z,99.99
2016-11-09T07:04:58.225Z,99.99
2016-11-09T07:06:11.793Z,99.99
2016-11-09T07:07:24.253Z,99.99
2016-11-09T07:08:37.794Z,99.99
2016-11-09T07:09:51.429Z,99.99
2016-11-09T07:11:36.127Z,99.99
2016-11-09T07:12:49.973Z,99.99
2016-11-09T07:14:03.079Z,99.99
2016-11-09T07:15:16.704Z,99.99
2016-11-09T07:16:29.480Z,99.99
2016-11-09T07:17:42.561Z,99.99
2016-11-09T07:18:56.140Z,99.99
2016-11-09T07:20:09.798Z,99.99
2016-11-09T07:21:23.354Z,99.99
2016-11-09T07:22:36.367Z,99.99
2016-11-09T07:23:50.010Z,99.99
2016-11-09T07:25:03.573Z,99.99
2016-11-09T07:26:16.127Z,99.99
2016-11-09T07:27:29.164Z,99.99
2016-11-09T07:28:41.664Z,99.99
2016-11-09T07:29:54.632Z,99.99
2016-11-09T07:31:08.249Z,99.99
2016-11-09T07:32:21.103Z,99.99
2016-11-09T07:34:05.761Z,99.99
2016-11-09T07:35:19.329Z,99.99
2016-11-09T07:36:32.954Z,99.99
2016-11-09T07:37:45.996Z,99.99
2016-11-09T07:40:44.262Z,99.99
2016-11-09T07:41:57.320Z,99.99
2016-11-09T07:43:10.583Z,99.99
2016-11-09T07:44:23.970Z,99.99
2016-11-09T07:45:37.590Z,99.99
2016-11-09T07:46:51.128Z,99.99
2016-11-09T07:48:04.702Z,99.99
2016-11-09T07:49:18.250Z,99.99
2016-11-09T07:50:31.903Z,99.99
2016-11-09T07:51:45.521Z,99.99
2016-11-09T07:52:59.055Z,99.99
2016-11-09T07:54:11.577Z,99.99
2016-11-09T07:55:24.616Z,99.99
2016-11-09T07:56:38.191Z,99.99
2016-11-09T07:57:51.794Z,99.99
2016-11-09T07:59:04.826Z,99.99
2016-11-09T08:00:17.888Z,99.99
2016-11-09T08:01:31.464Z,99.99
2016-11-09T08:02:44.990Z,99.99
2016-11-09T08:03:57.516Z,99.99
2016-11-09T08:05:11.129Z,99.99
2016-11-09T08:06:24.731Z,99.99
2016-11-09T08:07:37.755Z,99.99
2016-11-09T08:08:51.306Z,99.99
2016-11-09T08:10:04.891Z,99.99
2016-11-09T08:11:18.431Z,99.99
2016-11-09T08:12:32.034Z,99.99
2016-11-09T08:13:45.071Z,99.99
2016-11-09T08:14:58.743Z,99.99
2016-11-09T08:16:12.230Z,99.99
2016-11-09T08:17:25.982Z,99.99
2016-11-09T08:18:39.629Z,99.99
2016-11-09T08:19:53.234Z,99.99
2016-11-09T08:21:06.848Z,99.99
2016-11-09T08:22:20.042Z,99.99
2016-11-09T08:23:34.039Z,99.99
2016-11-09T08:24:47.597Z,99.99
2016-11-09T08:26:01.246Z,99.99
2016-11-09T08:27:14.794Z,99.99
2016-11-09T08:28:28.455Z,99.99
2016-11-09T08:29:42.029Z,99.99
2016-11-09T08:30:55.600Z,99.99
2016-11-09T08:32:08.592Z,99.99
2016-11-09T08:33:21.319Z,99.99
2016-11-09T08:34:34.921Z,99.99
2016-11-09T08:35:47.874Z,99.99
2016-11-09T08:37:00.709Z,99.99
2016-11-09T08:38:13.669Z,99.99
2016-11-09T08:39:27.396Z,99.99
2016-11-09T08:40:40.998Z,99.99
2016-11-09T08:41:54.486Z,99.99
2016-11-09T08:43:08.075Z,99.99
2016-11-09T08:44:21.668Z,99.99
2016-11-09T08:45:34.225Z,99.99
2016-11-09T08:46:47.545Z,99.99
2016-11-09T08:48:01.122Z,99.99
2016-11-09T08:49:14.207Z,99.99
2016-11-09T08:50:27.784Z,99.99
2016-11-09T08:51:41.459Z,99.99
2016-11-09T08:52:54.471Z,99.99
2016-11-09T08:54:08.072Z,99.99
2016-11-09T08:55:21.623Z,99.99
2016-11-09T08:56:35.111Z,99.99
2016-11-09T08:57:48.201Z,99.99
2016-11-09T08:59:01.791Z,99.99
2016-11-09T09:00:15.113Z,99.99
2016-11-09T09:01:28.662Z,99.99
2016-11-09T09:02:42.259Z,99.99
2016-11-09T09:03:56.173Z,99.99
2016-11-09T09:05:09.771Z,99.99
2016-11-09T09:06:23.737Z,99.99
2016-11-09T09:07:36.299Z,99.99
2016-11-09T09:08:49.311Z,99.99
2016-11-09T09:10:02.826Z,99.99
2016-11-09T09:11:16.437Z,99.99
2016-11-09T09:12:30.034Z,99.99
2016-11-09T09:13:43.636Z,99.99
2016-11-09T09:14:57.419Z,99.99
2016-11-09T09:16:10.972Z,99.99
2016-11-09T09:17:24.531Z,99.99
2016-11-09T09:18:38.052Z,99.99
2016-11-09T09:19:51.597Z,99.99
2016-11-09T09:21:04.069Z,99.99
2016-11-09T09:22:17.171Z,99.99
2016-11-09T09:23:30.777Z,99.99
2016-11-09T09:24:43.816Z,99.99
2016-11-09T09:25:56.750Z,99.99
2016-11-09T09:27:09.760Z,99.99
2016-11-09T09:28:23.350Z,99.99
2016-11-09T09:29:36.930Z,99.99
2016-11-09T09:30:49.990Z,99.99
2016-11-09T09:32:03.584Z,99.99
2016-11-09T09:33:17.092Z,99.35
2016-11-09T09:34:30.652Z,99.07
2016-11-09T09:35:44.195Z,98.39
2016-11-09T09:36:57.792Z,98.87
2016-11-09T09:38:10.903Z,98.58
2016-11-09T09:39:24.202Z,98.1
2016-11-09T09:40:36.946Z,97.62
2016-11-09T09:41:50.576Z,97.52
2016-11-09T09:43:04.271Z,97.72
2016-11-09T09:44:17.892Z,97.52
2016-11-09T09:45:30.955Z,97.52
2016-11-09T09:46:44.540Z,97.52
2016-11-09T09:47:58.114Z,97.91
2016-11-09T09:49:11.676Z,97.14
2016-11-09T09:50:25.189Z,96.85
2016-11-09T09:51:38.753Z,96.66
2016-11-09T09:52:52.386Z,96.46
2016-11-09T09:54:05.475Z,97.14
2016-11-09T09:55:18.020Z,97.14
2016-11-09T09:56:31.511Z,97.19
2016-11-09T09:57:44.094Z,96.27
2016-11-09T09:58:57.636Z,96.32
2016-11-09T10:00:11.183Z,95.54
2016-11-09T10:01:24.297Z,94.87
2016-11-09T10:02:37.575Z,95.45
2016-11-09T10:03:50.096Z,95.45
2016-11-09T10:05:03.683Z,96.22
2016-11-09T10:06:17.228Z,96.22
2016-11-09T10:07:30.793Z,95.16
2016-11-09T10:09:15.426Z,95.45
2016-11-09T10:10:29.015Z,95.26
2016-11-09T10:11:42.565Z,95.84
2016-11-09T10:12:56.209Z,94.78
2016-11-09T10:14:09.747Z,94.1
2016-11-09T10:15:23.404Z,94.1
2016-11-09T10:16:36.990Z,94.1
2016-11-09T10:17:50.150Z,94.2
2016-11-09T10:19:03.732Z,94.39
2016-11-09T10:20:16.474Z,94.58
2016-11-09T10:21:30.066Z,94.2
2016-11-09T10:22:43.619Z,93.95
2016-11-09T10:23:57.353Z,93.71
2016-11-09T10:25:10.878Z,93.66
2016-11-09T10:26:23.166Z,93.76
2016-11-09T10:27:36.749Z,93.66
2016-11-09T10:28:50.298Z,93.37
2016-11-09T10:30:03.288Z,93.57
2016-11-09T10:31:16.936Z,93.28
2016-11-09T10:32:30.554Z,92.99
2016-11-09T10:33:43.851Z,92.22
2016-11-09T10:34:56.951Z,92.7
2016-11-09T10:36:09.967Z,93.47
2016-11-09T10:37:23.152Z,93.57
2016-11-09T10:38:36.183Z,92.7
2016-11-09T10:39:49.227Z,92.02
2016-11-09T10:41:02.751Z,92.16
2016-11-09T10:42:15.834Z,91.59
2016-11-09T10:43:29.367Z,91.16
2016-11-09T10:44:42.951Z,92.12
2016-11-09T10:45:56.553Z,91.97
2016-11-09T10:47:10.057Z,91.39
2016-11-09T10:48:23.713Z,91.59
2016-11-09T10:49:36.768Z,91.97
2016-11-09T10:50:50.362Z,91.59
2016-11-09T10:52:03.944Z,91.49
2016-11-09T10:53:16.163Z,91.59
2016-11-09T10:54:29.272Z,91.11
2016-11-09T10:55:41.814Z,91.2
2016-11-09T10:56:55.105Z,91.78
2016-11-09T10:58:08.677Z,90.53
2016-11-09T10:59:22.255Z,90.43
2016-11-09T11:00:35.904Z,90.09
2016-11-09T11:01:49.554Z,90.57
2016-11-09T11:03:03.094Z,89.99
2016-11-09T11:04:16.751Z,90.09
2016-11-09T11:05:30.580Z,89.99
2016-11-09T11:06:44.354Z,89.51
2016-11-09T11:07:56.875Z,89.61
2016-11-09T11:09:10.448Z,90.09
2016-11-09T11:10:24.034Z,89.51
2016-11-09T11:11:37.690Z,89.7
2016-11-09T11:12:51.264Z,89.07
2016-11-09T11:14:04.806Z,89.45
2016-11-09T11:15:18.425Z,89.07
2016-11-09T11:16:32.027Z,89.26
2016-11-09T11:17:44.570Z,88.68
2016-11-09T11:19:04.712Z,88.49
2016-11-09T11:20:18.369Z,88.01
2016-11-09T11:21:31.941Z,87.91
2016-11-09T11:22:44.523Z,88.1
2016-11-09T11:23:57.812Z,87.43
2016-11-09T11:25:11.531Z,86.99
2016-11-09T11:26:25.217Z,87.57
2016-11-09T11:27:38.811Z,86.89
2016-11-09T11:28:52.380Z,87.08
2016-11-09T11:30:05.990Z,87.76
2016-11-09T11:31:19.613Z,87.66
2016-11-09T11:32:33.304Z,87.95
2016-11-09T11:33:46.996Z,87.18
2016-11-09T11:35:00.075Z,86.89
2016-11-09T11:36:13.227Z,86.99
2016-11-09T11:37:26.843Z,87.13
2016-11-09T11:38:40.527Z,85.87
2016-11-09T11:39:54.345Z,85.87
2016-11-09T11:41:07.993Z,87.23
2016-11-09T11:42:21.681Z,86.45
2016-11-09T11:43:35.284Z,86.45
2016-11-09T11:44:48.344Z,86.06
2016-11-09T11:46:01.517Z,86.06
2016-11-09T11:47:14.633Z,86.25
2016-11-09T11:48:28.309Z,86.45
2016-11-09T11:49:41.885Z,86.93
2016-11-09T11:50:55.538Z,87.13
2016-11-09T11:52:09.168Z,85.82
2016-11-09T11:53:23.211Z,85.24
2016-11-09T11:54:35.711Z,85.52
2016-11-09T11:55:48.889Z,85.33
2016-11-09T11:57:02.206Z,86.4
2016-11-09T11:58:15.382Z,85.82
2016-11-09T11:59:28.953Z,85.14
2016-11-09T12:00:42.069Z,85.37
2016-11-09T12:01:55.188Z,84.79
2016-11-09T12:03:08.303Z,83.83
2016-11-09T12:04:21.697Z,84.5
2016-11-09T12:05:35.389Z,83.53
2016-11-09T12:06:48.472Z,83.92
2016-11-09T12:08:02.009Z,83.83
2016-11-09T12:09:15.748Z,83.83
2016-11-09T12:10:29.373Z,82.51
2016-11-09T12:11:42.174Z,80.87
2016-11-09T12:12:55.826Z,81.93
2016-11-09T12:14:09.239Z,81.64
2016-11-09T12:15:22.346Z,81.35
2016-11-09T12:16:35.935Z,80.38
2016-11-09T12:17:49.526Z,80.87
2016-11-09T12:19:02.921Z,80.96
2016-11-09T12:20:16.666Z,79.22
2016-11-09T12:21:29.865Z,79.6
2016-11-09T12:22:43.177Z,78.97
2016-11-09T12:23:56.751Z,79.64
2016-11-09T12:25:09.800Z,79.78
2016-11-09T12:26:22.620Z,79.39
2016-11-09T12:27:36.227Z,79.1
2016-11-09T12:28:50.084Z,79.3
2016-11-09T12:30:03.164Z,78.23
2016-11-09T12:31:16.774Z,79
2016-11-09T12:32:30.120Z,78.03
2016-11-09T12:33:43.659Z,77.75
2016-11-09T12:34:57.534Z,77.94
2016-11-09T12:36:10.553Z,77.55
2016-11-09T12:37:24.309Z,77.65
2016-11-09T12:38:37.912Z,78.13
2016-11-09T12:39:51.470Z,78.13
2016-11-09T12:41:05.050Z,77.84
2016-11-09T12:42:18.702Z,77.75
2016-11-09T12:43:32.270Z,77.59
2016-11-09T12:44:45.850Z,77.78
2016-11-09T12:45:59.461Z,76.52
2016-11-09T12:47:13.061Z,77.2
2016-11-09T12:48:26.623Z,76.32
2016-11-09T12:49:40.184Z,76.46
2016-11-09T12:50:53.476Z,75.4
2016-11-09T12:52:07.107Z,75.4
2016-11-09T12:53:20.757Z,76.27
2016-11-09T12:54:33.747Z,76.37
2016-11-09T12:55:46.861Z,75.72
2016-11-09T12:56:59.993Z,75.43
2016-11-09T12:58:13.667Z,74.37
2016-11-09T12:59:27.575Z,74.56
2016-11-09T13:00:40.075Z,74.6
2016-11-09T13:01:53.669Z,73.49
2016-11-09T13:03:07.378Z,72.55
2016-11-09T13:04:21.086Z,72.45
2016-11-09T13:05:34.717Z,72.39
2016-11-09T13:06:47.859Z,72.01
2016-11-09T13:08:01.246Z,71.81
2016-11-09T13:09:15.027Z,70.78
2016-11-09T13:10:28.204Z,71.07
2016-11-09T13:11:41.892Z,70.58
2016-11-09T13:12:55.535Z,70.49
2016-11-09T13:14:09.151Z,70.52
2016-11-09T13:15:23.325Z,69.45
2016-11-09T13:16:36.922Z,69.55
2016-11-09T13:17:50.550Z,70.42
2016-11-09T13:19:04.200Z,70.23
2016-11-09T13:20:17.335Z,69.84
2016-11-09T13:21:30.965Z,70.42
2016-11-09T13:22:44.556Z,69.39
2016-11-09T13:23:58.266Z,69.55
2016-11-09T13:25:11.345Z,69.78
2016-11-09T13:26:24.927Z,69.39
2016-11-09T13:27:37.953Z,68.9
2016-11-09T13:28:51.572Z,69.1
2016-11-09T13:30:05.201Z,69.23
2016-11-09T13:31:18.800Z,68.29
2016-11-09T13:32:32.355Z,68.29
2016-11-09T13:33:45.495Z,68.19
2016-11-09T13:34:58.596Z,67.02
2016-11-09T13:36:12.219Z,67.41
2016-11-09T13:39:10.603Z,65.95
2016-11-09T13:40:24.444Z,66.44
2016-11-09T13:41:37.485Z,67.02
2016-11-09T13:42:50.446Z,65.3
2016-11-09T13:44:04.170Z,65.26
2016-11-09T13:45:17.743Z,65.56
2016-11-09T13:46:30.286Z,66.96
2016-11-09T13:47:43.978Z,65.98
2016-11-09T13:48:57.670Z,65.01
2016-11-09T13:50:10.521Z,63.74
2016-11-09T13:51:23.552Z,62.57
2016-11-09T13:52:36.605Z,62.76
2016-11-09T13:53:50.378Z,63.54
2016-11-09T13:55:03.811Z,62.96
2016-11-09T13:56:17.984Z,63.93
2016-11-09T13:57:32.198Z,62.47
2016-11-09T13:58:45.769Z,61.01
2016-11-09T13:59:59.337Z,59.97
2016-11-09T14:01:12.884Z,60.75
2016-11-09T14:02:26.375Z,60.26
2016-11-09T14:03:40.059Z,60.26
2016-11-09T14:04:53.248Z,59.77
2016-11-09T14:06:06.296Z,60.19
2016-11-09T14:07:20.134Z,59.7
2016-11-09T14:08:33.169Z,59.12
2016-11-09T14:09:46.740Z,60.13
2016-11-09T14:11:00.636Z,59.83
2016-11-09T14:12:13.685Z,60.16
2016-11-09T14:13:27.077Z,59.25
2016-11-09T14:14:40.158Z,59.08
2016-11-09T14:15:53.815Z,58.91
2016-11-09T14:17:06.765Z,57.97
2016-11-09T14:18:19.295Z,58.23
2016-11-09T14:19:32.825Z,59.11
2016-11-09T14:20:46.387Z,58.03
2016-11-09T14:22:00.834Z,57.93
2016-11-09T14:23:14.392Z,58.23
2016-11-09T14:24:27.969Z,58.23
2016-11-09T14:25:41.070Z,57.06
2016-11-09T14:26:54.603Z,56.6
2016-11-09T14:28:07.356Z,56.85
2016-11-09T14:29:20.411Z,54.23
2016-11-09T14:30:33.476Z,53.96
2016-11-09T14:31:46.509Z,52.64
2016-11-09T14:33:00.073Z,51.66
2016-11-09T14:34:13.754Z,51.39
2016-11-09T14:35:25.719Z,51.62
2016-11-09T14:36:39.304Z,51.66
2016-11-09T14:37:52.852Z,51.42
2016-11-09T14:39:05.994Z,49.07
2016-11-09T14:40:18.932Z,49.36
2016-11-09T14:41:32.506Z,48.4
2016-11-09T14:42:46.163Z,48.52
2016-11-09T14:43:59.710Z,49.41
2016-11-09T14:45:13.027Z,49.21
2016-11-09T14:46:26.690Z,49.99
2016-11-09T14:47:40.250Z,49.77
2016-11-09T14:48:52.775Z,49.87
2016-11-09T14:50:06.258Z,48.99
2016-11-09T14:51:19.840Z,49.01
2016-11-09T14:52:32.766Z,49.16
2016-11-09T14:53:46.430Z,49.26
2016-11-09T14:54:59.971Z,49.95
2016-11-09T14:56:13.590Z,51.25
2016-11-09T14:57:27.624Z,51.49
2016-11-09T14:58:41.145Z,53.33
2016-11-09T14:59:54.715Z,53.16
2016-11-09T15:01:07.465Z,54.43
2016-11-09T15:02:20.993Z,55.18
2016-11-09T15:03:34.018Z,55.45
2016-11-09T15:04:47.550Z,54.25
2016-11-09T15:06:01.187Z,52.42
2016-11-09T15:07:14.266Z,51.98
2016-11-09T15:08:27.050Z,52.69
2016-11-09T15:09:40.648Z,52.5
2016-11-09T15:10:54.437Z,51.61
2016-11-09T15:12:08.040Z,51.83
2016-11-09T15:13:20.266Z,51.66
2016-11-09T15:14:32.871Z,52.25
2016-11-09T15:15:45.983Z,52.81
2016-11-09T15:16:59.641Z,52.91
2016-11-09T15:18:13.261Z,53.66
2016-11-09T15:19:26.863Z,53.66
2016-11-09T15:20:39.870Z,55.1
2016-11-09T15:21:53.320Z,55.69
2016-11-09T15:23:06.925Z,55.98
2016-11-09T15:24:20.599Z,56.15
2016-11-09T15:25:34.251Z,55.66
2016-11-09T15:26:47.286Z,56.71
2016-11-09T15:28:00.957Z,56.45
2016-11-09T15:29:14.657Z,55.79
2016-11-09T15:30:28.194Z,52.61
2016-11-09T15:31:41.818Z,51.78
2016-11-09T15:32:54.306Z,50.2
2016-11-09T15:34:07.970Z,48.57
2016-11-09T15:35:21.580Z,47.3
2016-11-09T15:36:35.181Z,47.3
2016-11-09T15:37:48.753Z,46.28
2016-11-09T15:39:02.354Z,47.22
2016-11-09T15:40:15.977Z,47.96
2016-11-09T15:41:29.570Z,48.72
2016-11-09T15:42:43.411Z,49.68
2016-11-09T15:43:57.029Z,50.51
2016-11-09T15:45:10.642Z,51.29
2016-11-09T15:46:24.466Z,51.54
2016-11-09T15:47:38.027Z,51.42
2016-11-09T15:48:51.547Z,50.15
2016-11-09T15:50:05.148Z,50.34
2016-11-09T15:51:18.647Z,49.87
2016-11-09T15:52:31.729Z,49.02
2016-11-09T15:53:44.818Z,48.94
2016-11-09T15:54:58.452Z,49.24
2016-11-09T15:56:11.523Z,49.6
2016-11-09T15:57:25.144Z,50.93